Time;durP1;ratioP1;P1;durP2;ratioP2;P2;SDS_P1;SDS_P2;PMS_P1;PMS_P2;Temp;Humidity;BMP_temperature;BMP_pressure;BME280_temperature;BME280_humidity;BME280_pressure;Samples;Min_cycle;Max_cycle;Signal;HPM_P1;HPM_P2
2022/12/14 00:01:33;;;;;;;11.20;4.25;;;;;;;-1.11;78.49;98631.53;12178845;19;20753;-81
2022/12/14 00:05:34;;;;;;;10.05;4.43;;;;;;;-1.11;78.40;98641.50;12202791;19;20392;-80
2022/12/14 00:09:36;;;;;;;11.52;5.22;;;;;;;-1.10;77.92;98638.63;12207340;19;20038;-80
2022/12/14 00:13:38;;;;;;;9.45;5.30;;;;;;;-1.10;78.22;98625.09;12176246;19;20011;-81
2022/12/14 00:17:40;;;;;;;9.32;4.07;;;;;;;-1.10;78.04;98630.50;12205892;19;20056;-78
2022/12/14 00:21:42;;;;;;;8.10;3.63;;;;;;;-1.09;78.14;98629.44;12196248;19;20501;-78
2022/12/14 00:25:43;;;;;;;12.57;5.00;;;;;;;-1.02;78.09;98611.38;12182549;19;20010;-78
2022/12/14 00:29:49;;;;;;;9.32;4.13;;;;;;;-1.00;77.85;98595.78;12201733;19;20040;-79
2022/12/14 00:33:51;;;;;;;11.15;5.43;;;;;;;-1.01;77.96;98577.91;12201612;19;20031;-79
2022/12/14 00:37:53;;;;;;;11.63;4.35;;;;;;;-1.05;77.99;98587.44;12204027;19;20523;-79
2022/12/14 00:41:54;;;;;;;12.98;5.38;;;;;;;-1.10;77.92;98581.84;12202241;19;20409;-76
2022/12/14 00:45:57;;;;;;;15.32;5.88;;;;;;;-1.17;77.71;98568.28;12187161;19;20011;-79
2022/12/14 00:49:58;;;;;;;9.55;4.05;;;;;;;-1.23;78.20;98563.69;12202974;19;20087;-76
2022/12/14 00:54:00;;;;;;;12.73;5.13;;;;;;;-1.21;78.30;98574.31;12200730;19;20002;-80
2022/12/14 00:58:02;;;;;;;8.90;4.40;;;;;;;-1.17;78.25;98580.97;12179476;19;20504;-81
2022/12/14 01:02:03;;;;;;;10.82;4.88;;;;;;;-1.19;77.92;98566.81;12193996;19;20019;-80
2022/12/14 01:06:05;;;;;;;9.90;4.33;;;;;;;-1.19;78.27;98567.69;12200867;19;20015;-81
2022/12/14 01:10:07;;;;;;;7.55;3.10;;;;;;;-1.18;78.31;98566.63;12173059;19;20041;-79
2022/12/14 01:14:11;;;;;;;9.85;3.63;;;;;;;-1.19;78.12;98553.31;12195034;19;20014;-80
2022/12/14 01:18:13;;;;;;;7.95;4.45;;;;;;;-1.12;78.29;98562.28;12211714;19;20018;-77
2022/12/14 01:22:15;;;;;;;15.32;4.55;;;;;;;-1.04;78.35;98562.09;12194613;19;20068;-80
2022/12/14 01:26:17;;;;;;;8.27;3.75;;;;;;;-1.01;78.35;98567.09;12210504;19;20029;-77
2022/12/14 01:30:19;;;;;;;7.18;3.58;;;;;;;-0.98;78.38;98553.16;12200037;19;20050;-80
2022/12/14 01:34:21;;;;;;;14.10;4.50;;;;;;;-0.97;78.12;98540.47;12173839;19;20035;-81
2022/12/14 01:38:22;;;;;;;13.98;6.07;;;;;;;-0.99;77.66;98535.25;12201020;19;20460;-77
2022/12/14 01:42:24;;;;;;;18.02;6.95;;;;;;;-1.03;77.44;98525.06;12194771;19;20006;-80
2022/12/14 01:46:34;;;;;;;12.68;5.63;;;;;;;-1.07;78.09;98516.53;12177825;19;20003;-80
2022/12/14 01:50:44;;;;;;;11.75;5.22;;;;;;;-1.12;78.22;98516.31;12201163;19;20007;-78
2022/12/14 01:54:55;;;;;;;13.88;6.20;;;;;;;-1.12;78.22;98527.13;12194136;19;20034;-80
2022/12/14 01:59:01;;;;;;;15.75;6.85;;;;;;;-1.08;78.40;98520.25;12171152;19;21619;-76
2022/12/14 02:03:25;;;;;;;12.35;6.43;;;;;;;-1.13;78.22;98508.41;12192172;19;20027;-79
2022/12/14 02:07:29;;;;;;;11.77;5.97;;;;;;;-1.10;77.95;98497.19;12173311;19;20017;-80
2022/12/14 02:11:36;;;;;;;11.23;5.28;;;;;;;-1.18;78.34;98496.34;12193086;19;20002;-80
2022/12/14 02:15:38;;;;;;;10.85;5.60;;;;;;;-1.12;78.38;98492.00;12194049;19;20006;-80
2022/12/14 02:19:42;;;;;;;13.90;5.40;;;;;;;-1.06;78.37;98493.88;12169957;19;20030;-80
2022/12/14 02:24:06;;;;;;;12.48;5.57;;;;;;;-1.01;78.24;98491.38;12196796;19;20010;-79
2022/12/14 02:28:48;;;;;;;13.85;5.50;;;;;;;-0.95;78.26;98490.53;12171052;19;20035;-80
2022/12/14 02:33:22;;;;;;;14.35;5.45;;;;;;;-0.94;78.17;98470.56;12189434;19;20007;-80
2022/12/14 02:37:42;;;;;;;18.33;5.90;;;;;;;-0.96;78.34;98469.09;12171819;19;20019;-80
2022/12/14 02:42:00;;;;;;;10.20;5.22;;;;;;;-1.01;78.25;98483.28;12191513;19;20034;-79
2022/12/14 02:46:18;;;;;;;15.20;6.18;;;;;;;-1.09;78.17;98466.41;12167936;19;20038;-80
2022/12/14 02:50:28;;;;;;;11.27;5.90;;;;;;;-1.09;78.40;98448.31;12192489;19;20003;-81
2022/12/14 02:54:54;;;;;;;12.95;6.10;;;;;;;-1.07;78.42;98440.84;12188504;19;20021;-79
2022/12/14 02:58:56;;;;;;;12.18;5.43;;;;;;;-1.03;78.37;98438.56;12165452;19;20003;-81
2022/12/14 03:02:59;;;;;;;12.82;5.57;;;;;;;-1.08;77.87;98436.47;12189545;19;20085;-79
2022/12/14 03:07:21;;;;;;;;;;;;;;;-1.03;78.02;98441.25;12175729;19;20019;-78
2022/12/14 03:11:30;;;;;;;14.50;5.50;;;;;;;-1.02;77.97;98435.63;12204558;19;19907;-80
2022/12/14 03:15:37;;;;;;;14.57;5.65;;;;;;;-1.02;78.15;98426.69;12203541;19;20014;-81
2022/12/14 03:19:45;;;;;;;12.05;5.32;;;;;;;-1.00;78.00;98428.13;12186872;19;20006;-77
2022/12/14 03:23:51;;;;;;;11.85;5.25;;;;;;;-0.99;78.08;98418.16;12201397;19;20046;-80
2022/12/14 03:28:09;;;;;;;16.25;6.53;;;;;;;-1.03;78.11;98411.50;12214033;19;20789;-80
2022/12/14 03:32:17;;;;;;;17.25;6.68;;;;;;;-1.09;78.01;98418.59;12185361;19;20034;-80
2022/12/14 03:36:29;;;;;;;15.23;5.88;;;;;;;-1.12;78.34;98410.88;12209368;19;20006;-80
2022/12/14 03:40:44;;;;;;;16.05;6.65;;;;;;;-1.19;78.33;98408.19;12184154;19;20024;-80
2022/12/14 03:45:04;;;;;;;15.43;6.22;;;;;;;-1.20;78.33;98411.94;12197350;19;20010;-79
2022/12/14 03:49:30;;;;;;;15.35;6.43;;;;;;;-1.25;78.35;98400.06;12202507;19;20010;-76
2022/12/14 03:53:32;;;;;;;14.55;6.35;;;;;;;-1.27;78.57;98404.88;12242979;19;20010;-76
2022/12/14 03:57:37;;;;;;;13.38;6.97;;;;;;;-1.30;78.52;98399.88;12211765;19;20006;-79
2022/12/14 04:01:48;;;;;;;12.45;6.60;;;;;;;-1.29;78.72;98388.03;12183175;19;20007;-81
2022/12/14 04:05:59;;;;;;;15.53;7.33;;;;;;;-1.29;78.66;98386.16;12206595;19;20018;-79
2022/12/14 04:19:19;;;;;;;12.88;6.20;;;;;;;-1.35;79.15;98369.94;12197387;19;20010;-76
2022/12/14 04:27:57;;;;;;;15.02;7.20;;;;;;;-1.25;79.28;98359.53;12218761;19;20102;-81
2022/12/14 04:32:08;;;;;;;13.98;5.57;;;;;;;-1.20;78.96;98354.34;12183843;19;20014;-80
2022/12/14 04:36:22;;;;;;;12.02;6.20;;;;;;;-1.12;78.91;98354.13;12200603;19;20483;-80
2022/12/14 04:40:34;;;;;;;13.00;6.18;;;;;;;-1.08;78.84;98355.34;12182005;19;20015;-77
2022/12/14 04:44:41;;;;;;;18.92;7.20;;;;;;;-1.06;78.82;98364.09;12210124;19;20018;-79
2022/12/14 04:49:07;;;;;;;12.75;6.50;;;;;;;-1.04;78.66;98380.94;12210388;19;20030;-78
2022/12/14 04:53:15;;;;;;;12.40;6.63;;;;;;;-1.00;78.64;98373.25;12179193;19;20011;-80
2022/12/14 04:57:36;;;;;;;16.17;7.03;;;;;;;-0.95;78.77;98376.97;12204578;19;20006;-78
2022/12/14 05:01:47;;;;;;;13.45;6.38;;;;;;;-0.88;78.53;98387.78;12179285;19;20002;-78
2022/12/14 05:06:15;;;;;;;14.65;6.18;;;;;;;-0.84;78.34;98386.28;12207498;19;20007;-79
2022/12/14 05:10:49;;;;;;;12.52;6.65;;;;;;;-0.79;78.49;98372.16;12179890;19;21069;-77
2022/12/14 05:15:03;;;;;;;17.25;5.85;;;;;;;-0.72;78.19;98368.38;12193912;19;20088;-79
2022/12/14 05:19:09;;;;;;;21.58;8.07;;;;;;;-0.71;78.17;98370.06;12180595;19;20007;-80
2022/12/14 05:23:11;;;;;;;19.67;6.60;;;;;;;-0.74;77.98;98375.06;12198571;19;20105;-78
2022/12/14 05:27:13;;;;;;;14.53;7.00;;;;;;;-0.75;78.53;98378.78;12201564;19;20005;-77
2022/12/14 05:31:15;;;;;;;16.60;7.03;;;;;;;-0.71;78.46;98382.75;12181122;19;20000;-79
2022/12/14 05:35:17;;;;;;;16.73;7.38;;;;;;;-0.71;78.43;98378.16;12200168;19;20006;-77
2022/12/14 05:39:18;;;;;;;18.27;7.22;;;;;;;-0.68;78.49;98379.63;12202911;19;20022;-80
2022/12/14 05:43:20;;;;;;;14.15;6.38;;;;;;;-0.64;78.92;98377.31;12179175;19;20010;-82
2022/12/14 05:47:22;;;;;;;14.02;6.43;;;;;;;-0.62;78.69;98365.25;12200537;19;20027;-78
2022/12/14 05:51:24;;;;;;;11.40;5.75;;;;;;;-0.60;78.85;98367.72;12199022;19;20018;-81
2022/12/14 05:55:25;;;;;;;15.35;6.32;;;;;;;-0.57;78.92;98351.88;12178683;19;20141;-81
2022/12/14 05:59:27;;;;;;;14.45;5.97;;;;;;;-0.53;79.06;98339.59;12201858;19;20487;-80
2022/12/14 06:03:29;;;;;;;17.08;6.75;;;;;;;-0.49;78.91;98327.28;12197632;19;20743;-80
2022/12/14 06:07:31;;;;;;;15.10;6.55;;;;;;;-0.47;78.74;98310.84;12177192;19;20101;-78
2022/12/14 06:11:37;;;;;;;15.27;7.00;;;;;;;-0.46;78.92;98309.81;12193819;19;19999;-79
2022/12/14 06:15:39;;;;;;;15.73;7.03;;;;;;;-0.43;79.06;98314.78;12197645;19;20010;-79
2022/12/14 06:19:42;;;;;;;20.42;6.53;;;;;;;-0.41;78.83;98309.16;12172352;19;20014;-76
2022/12/14 06:23:50;;;;;;;17.02;6.43;;;;;;;-0.40;78.65;98303.53;12193938;19;20006;-79
2022/12/14 06:27:53;;;;;;;18.27;6.73;;;;;;;-0.41;78.89;98303.75;12198147;19;20003;-77
2022/12/14 06:31:55;;;;;;;15.48;7.25;;;;;;;-0.44;78.59;98282.53;12172614;19;20007;-80
2022/12/14 06:35:56;;;;;;;14.52;5.93;;;;;;;-0.48;78.56;98274.84;12194977;19;20011;-79
2022/12/14 06:39:58;;;;;;;18.17;7.22;;;;;;;-0.44;78.97;98266.31;12168187;19;20090;-80
2022/12/14 06:44:04;;;;;;;12.50;5.70;;;;;;;-0.43;79.29;98251.72;12191575;19;20127;-81
2022/12/14 06:48:06;;;;;;;16.38;6.18;;;;;;;-0.49;79.31;98248.81;12210548;19;20026;-81
2022/12/14 06:52:10;;;;;;;15.93;7.13;;;;;;;-0.56;79.22;98237.22;12183132;19;20022;-78
2022/12/14 06:56:16;;;;;;;13.07;6.95;;;;;;;-0.55;79.61;98221.81;12209718;19;20031;-81
2022/12/14 07:00:18;;;;;;;21.23;8.07;;;;;;;-0.59;79.41;98224.13;12206072;19;20375;-79
2022/12/14 07:04:20;;;;;;;;;;;;;;;-0.60;79.84;98213.50;12181315;19;20007;-79
2022/12/14 07:08:22;;;;;;;22.77;7.95;;;;;;;-0.63;80.11;98201.25;12205041;19;20380;-78
2022/12/14 07:12:24;;;;;;;11.15;5.82;;;;;;;-0.64;80.33;98199.59;12201245;19;20007;-80
2022/12/14 07:16:28;;;;;;;19.08;9.18;;;;;;;-0.63;80.48;98197.72;12164030;19;20453;-79
2022/12/14 07:20:30;;;;;;;14.75;7.10;;;;;;;-0.67;80.60;98200.03;12211825;19;20030;-79
2022/12/14 07:24:31;;;;;;;15.38;7.85;;;;;;;-0.65;80.93;98186.31;12211018;19;20031;-80
2022/12/14 07:28:35;;;;;;;17.80;7.85;;;;;;;-0.64;81.10;98191.47;12190179;19;20010;-80
2022/12/14 07:32:37;;;;;;;16.13;8.75;;;;;;;-0.59;81.63;98185.44;12207714;19;20006;-80
2022/12/14 07:36:39;;;;;;;17.45;7.53;;;;;;;-0.53;81.96;98195.38;12212917;19;20010;-79
2022/12/14 07:40:41;;;;;;;24.67;10.02;;;;;;;-0.50;81.99;98217.41;12187514;19;21481;-80
2022/12/14 07:44:43;;;;;;;18.90;8.20;;;;;;;-0.49;82.39;98218.22;12211463;19;19999;-81
2022/12/14 07:48:50;;;;;;;25.40;10.33;;;;;;;-0.52;82.80;98219.50;12211633;19;20011;-80
2022/12/14 07:52:51;;;;;;;28.08;9.05;;;;;;;-0.59;83.37;98226.00;12184344;19;20198;-80
2022/12/14 07:56:53;;;;;;;19.33;8.48;;;;;;;-0.69;84.34;98212.94;12208356;19;20007;-81
2022/12/14 08:00:55;;;;;;;22.35;8.45;;;;;;;-0.67;84.99;98251.44;12215126;19;20007;-80
2022/12/14 08:04:56;;;;;;;18.58;8.55;;;;;;;-0.72;85.41;98276.41;12186474;19;20002;-79
2022/12/14 08:08:59;;;;;;;16.52;7.50;;;;;;;-0.67;85.44;98259.53;12211025;19;20010;-81
2022/12/14 08:13:01;;;;;;;26.08;10.35;;;;;;;-0.62;85.60;98262.44;12189544;19;20030;-78
2022/12/14 08:17:02;;;;;;;23.83;9.50;;;;;;;-0.58;85.81;98246.59;12212832;19;20427;-80
2022/12/14 08:21:06;;;;;;;24.00;9.32;;;;;;;-0.57;86.14;98259.91;12210674;19;20003;-81
2022/12/14 08:25:08;;;;;;;23.30;9.65;;;;;;;-0.55;86.61;98248.88;12189130;19;20010;-80
2022/12/14 08:29:11;;;;;;;19.10;8.40;;;;;;;-0.55;86.20;98251.56;12212158;19;20006;-81
2022/12/14 08:33:13;;;;;;;20.25;9.63;;;;;;;-0.48;87.16;98223.44;12210091;19;19998;-81
2022/12/14 08:37:15;;;;;;;23.10;9.35;;;;;;;-0.40;87.06;98225.03;12188437;19;20002;-80
2022/12/14 08:41:17;;;;;;;21.67;9.18;;;;;;;-0.38;87.80;98243.78;12216107;19;20725;-77
2022/12/14 08:45:26;;;;;;;24.30;9.45;;;;;;;-0.31;88.12;98241.84;12252140;19;20033;-77
2022/12/14 08:49:28;;;;;;;24.25;9.85;;;;;;;-0.33;87.81;98254.75;12207967;19;20447;-78
2022/12/14 08:53:34;;;;;;;23.58;9.18;;;;;;;-0.31;89.04;98245.38;12205480;19;20030;-80
2022/12/14 08:57:36;;;;;;;23.98;10.50;;;;;;;-0.17;89.21;98243.44;12209726;19;20038;-81
2022/12/14 09:01:38;;;;;;;25.05;10.70;;;;;;;-0.07;90.17;98254.59;12196760;19;20010;-78
2022/12/14 09:05:40;;;;;;;24.57;9.53;;;;;;;0.02;89.59;98247.03;12227163;19;20013;-80
2022/12/14 09:09:41;;;;;;;24.05;9.43;;;;;;;0.04;89.23;98246.81;12214872;19;21208;-79
2022/12/14 09:13:44;;;;;;;24.45;9.35;;;;;;;-0.04;89.52;98242.50;12185925;19;20007;-82
2022/12/14 09:17:46;;;;;;;31.77;14.35;;;;;;;-0.10;89.65;98246.91;12217502;19;20019;-81
2022/12/14 09:21:52;;;;;;;23.75;10.43;;;;;;;-0.08;90.23;98244.81;12207187;19;20026;-80
2022/12/14 09:26:16;;;;;;;18.27;9.37;;;;;;;0.01;90.71;98233.72;12191358;19;20359;-80
2022/12/14 09:30:17;;;;;;;18.95;9.80;;;;;;;0.07;90.60;98224.72;12226088;19;20048;-78
2022/12/14 09:34:28;;;;;;;26.30;9.38;;;;;;;0.18;91.00;98224.81;12228712;19;20014;-78
2022/12/14 09:38:31;;;;;;;;;;;;;;;0.30;91.09;98211.38;12256749;19;20018;-80
2022/12/14 09:42:46;;;;;;;21.88;10.32;;;;;;;0.32;90.10;98219.28;12216411;19;20036;-78
2022/12/14 09:46:51;;;;;;;28.67;11.27;;;;;;;0.18;90.22;98230.25;12231260;19;20031;-77
2022/12/14 09:50:53;;;;;;;23.60;10.32;;;;;;;0.13;90.53;98218.41;12233748;19;20093;-81
2022/12/14 09:54:57;;;;;;;21.57;8.90;;;;;;;0.09;89.91;98211.75;12206911;19;20401;-80
2022/12/14 09:59:01;;;;;;;25.58;9.18;;;;;;;0.03;90.52;98212.63;12189050;19;20011;-80
2022/12/14 10:03:28;;;;;;;23.92;11.35;;;;;;;0.06;90.88;98217.63;12205618;19;20010;-79
2022/12/14 10:07:48;;;;;;;22.23;10.52;;;;;;;0.16;90.93;98218.78;12188648;19;20017;-78
2022/12/14 10:12:25;;;;;;;31.00;12.10;;;;;;;0.11;90.63;98217.78;12205525;19;20003;-78
2022/12/14 10:17:04;;;;;;;28.40;11.00;;;;;;;0.21;90.99;98210.00;12178664;19;20038;-79
2022/12/14 10:21:15;;;;;;;22.90;9.05;;;;;;;0.26;90.46;98212.03;12203863;19;20011;-77
2022/12/14 10:25:24;;;;;;;20.48;9.57;;;;;;;0.26;90.16;98206.63;12178998;19;20027;-79
2022/12/14 10:29:46;;;;;;;22.15;10.27;;;;;;;0.19;90.58;98193.13;12201334;19;20010;-78
2022/12/14 10:33:49;;;;;;;22.75;9.50;;;;;;;0.12;90.73;98203.19;12203930;19;20011;-80
2022/12/14 10:38:10;;;;;;;19.08;8.50;;;;;;;0.06;90.57;98204.06;12184874;19;20102;-78
2022/12/14 10:42:28;;;;;;;20.05;8.02;;;;;;;0.11;91.19;98196.13;12212284;19;20042;-77
2022/12/14 10:46:30;;;;;;;22.75;9.23;;;;;;;0.21;91.52;98196.47;12199596;19;20041;-80
2022/12/14 10:50:52;;;;;;;22.13;8.73;;;;;;;0.35;91.36;98197.16;12241837;19;20011;-79
2022/12/14 10:55:00;;;;;;;22.13;9.55;;;;;;;0.40;91.33;98195.44;12236214;19;20539;-78
2022/12/14 10:59:17;;;;;;;20.05;8.32;;;;;;;0.28;90.56;98208.06;12208437;19;20047;-77
2022/12/14 11:03:19;;;;;;;22.70;10.35;;;;;;;0.17;91.52;98216.91;12233286;19;20007;-80
2022/12/14 11:07:24;;;;;;;28.30;10.07;;;;;;;0.30;92.18;98210.53;12201860;19;20018;-79
2022/12/14 11:11:26;;;;;;;22.15;9.82;;;;;;;0.21;91.48;98207.31;12218708;19;20035;-77
2022/12/14 11:15:35;;;;;;;24.60;9.65;;;;;;;0.17;91.62;98214.19;12220668;19;19998;-78
2022/12/14 11:19:37;;;;;;;25.65;11.32;;;;;;;0.21;92.09;98196.47;12177397;19;20373;-79
2022/12/14 11:23:44;;;;;;;20.85;9.75;;;;;;;0.31;92.60;98201.38;12196185;19;20007;-81
2022/12/14 11:27:46;;;;;;;20.05;8.63;;;;;;;0.38;92.29;98197.53;12201921;19;20035;-78
2022/12/14 11:31:53;;;;;;;19.92;9.23;;;;;;;0.39;91.63;98203.78;12183345;19;20014;-79
2022/12/14 11:35:55;;;;;;;18.17;9.13;;;;;;;0.45;92.04;98209.16;12206827;19;20045;-80
2022/12/14 11:40:03;;;;;;;20.13;8.90;;;;;;;0.59;92.70;98198.16;12204469;19;20011;-80
2022/12/14 11:44:22;;;;;;;22.52;9.75;;;;;;;0.65;91.80;98189.97;12205380;19;20011;-80
2022/12/14 11:48:26;;;;;;;20.88;8.95;;;;;;;0.78;91.73;98183.56;12209280;19;20373;-78
2022/12/14 11:52:37;;;;;;;18.13;9.45;;;;;;;1.03;92.09;98177.19;12186345;19;20118;-80
2022/12/14 11:56:39;;;;;;;18.90;9.32;;;;;;;1.23;91.53;98166.09;12204338;19;20092;-81
2022/12/14 12:00:46;;;;;;;19.20;8.20;;;;;;;1.41;90.61;98162.50;12190573;19;20015;-80
2022/12/14 12:04:56;;;;;;;22.52;9.57;;;;;;;1.35;89.00;98170.50;12203085;19;20007;-81
2022/12/14 12:09:00;;;;;;;26.58;12.02;;;;;;;1.34;89.80;98166.13;12203737;19;20093;-81
2022/12/14 12:13:05;;;;;;;19.13;8.80;;;;;;;1.25;89.13;98178.38;12184562;19;20007;-80
2022/12/14 12:17:36;;;;;;;18.08;8.40;;;;;;;1.02;88.92;98187.22;12209532;19;20007;-79
2022/12/14 12:21:41;;;;;;;17.63;8.65;;;;;;;0.85;89.59;98176.16;12181279;19;20483;-79
2022/12/14 12:25:46;;;;;;;22.55;9.45;;;;;;;0.88;90.33;98186.56;12209507;19;20026;-79
2022/12/14 12:30:05;;;;;;;24.33;10.90;;;;;;;1.01;90.38;98179.31;12219807;19;20101;-81
2022/12/14 12:34:23;;;;;;;22.67;9.63;;;;;;;1.22;89.97;98167.97;12184203;19;20010;-79
2022/12/14 12:38:24;;;;;;;22.80;9.40;;;;;;;1.27;89.49;98172.69;12203490;19;20385;-82
2022/12/14 12:42:35;;;;;;;19.60;9.38;;;;;;;1.25;89.35;98175.66;12182000;19;20714;-81
2022/12/14 12:46:45;;;;;;;44.35;20.73;;;;;;;1.22;88.70;98175.28;12203855;19;20011;-80
2022/12/14 12:51:15;;;;;;;22.65;9.73;;;;;;;1.20;89.19;98180.13;12233681;19;20089;-77
2022/12/14 12:55:20;;;;;;;21.30;9.02;;;;;;;1.22;89.25;98195.13;12188529;19;20079;-78
2022/12/14 12:59:41;;;;;;;18.90;8.02;;;;;;;1.15;88.60;98197.06;12202208;19;20003;-84
2022/12/14 13:03:47;;;;;;;18.55;9.00;;;;;;;0.99;88.75;98200.41;12179185;19;20022;-82
2022/12/14 13:08:00;;;;;;;19.83;9.35;;;;;;;1.05;89.94;98202.22;12206641;19;20046;-81
2022/12/14 13:12:07;;;;;;;16.35;7.40;;;;;;;0.99;89.00;98206.66;12192302;19;20035;-80
2022/12/14 13:16:24;;;;;;;21.02;7.22;;;;;;;0.99;89.52;98200.41;12181894;19;20011;-82
2022/12/14 13:20:33;;;;;;;17.95;7.80;;;;;;;0.94;89.07;98205.69;12205970;19;20413;-77
2022/12/14 13:24:35;;;;;;;19.85;7.70;;;;;;;0.77;89.14;98205.47;12186840;19;20054;-78
2022/12/14 13:29:07;;;;;;;19.15;7.05;;;;;;;0.74;89.58;98217.56;12201896;19;20014;-79
2022/12/14 13:33:44;;;;;;;16.38;7.18;;;;;;;0.60;89.51;98219.63;12182992;19;20007;-77
2022/12/14 13:38:03;;;;;;;17.67;7.28;;;;;;;0.60;90.18;98229.66;12246099;19;20022;-80
2022/12/14 13:42:17;;;;;;;18.42;7.40;;;;;;;0.70;89.92;98220.97;12215738;19;20006;-79
2022/12/14 13:46:23;;;;;;;16.55;6.95;;;;;;;0.78;89.48;98240.50;12179284;19;20084;-78
2022/12/14 13:50:35;;;;;;;15.80;6.97;;;;;;;0.70;89.16;98245.38;12197765;19;20046;-80
2022/12/14 13:54:40;;;;;;;19.75;8.32;;;;;;;0.57;89.34;98238.22;12181150;19;20011;-80
2022/12/14 13:58:46;;;;;;;16.75;6.50;;;;;;;0.64;89.58;98233.56;12199193;19;20034;-79
2022/12/14 14:02:52;;;;;;;14.85;6.38;;;;;;;0.70;89.57;98242.66;12216667;19;20009;-79
2022/12/14 14:07:22;;;;;;;18.50;7.43;;;;;;;0.68;89.33;98248.31;12187538;19;20345;-78
2022/12/14 14:11:27;;;;;;;13.73;6.50;;;;;;;0.64;89.49;98250.63;12201664;19;20003;-78
2022/12/14 14:15:50;;;;;;;17.98;7.15;;;;;;;0.71;89.15;98255.97;12180055;19;20480;-81
2022/12/14 14:20:43;;;;;;;16.85;8.02;;;;;;;0.71;89.26;98271.44;12202033;19;20035;-80
2022/12/14 14:24:54;;;;;;;16.77;7.90;;;;;;;0.53;88.74;98264.91;12183313;19;20010;-80
2022/12/14 14:29:20;;;;;;;14.93;6.93;;;;;;;0.50;89.45;98275.38;12206135;19;20059;-77
2022/12/14 14:33:40;;;;;;;15.50;6.90;;;;;;;0.54;89.58;98277.44;12199409;19;20015;-80
2022/12/14 14:38:01;;;;;;;16.40;7.43;;;;;;;0.56;89.37;98261.75;12238180;19;20280;-78
2022/12/14 14:42:06;;;;;;;16.67;6.75;;;;;;;0.51;89.20;98268.94;12218542;19;20491;-79
2022/12/14 14:46:09;;;;;;;15.32;7.25;;;;;;;0.36;88.64;98269.28;12181665;19;20014;-80
2022/12/14 14:50:14;;;;;;;15.77;7.53;;;;;;;0.28;89.12;98277.66;12196854;19;19999;-81
2022/12/14 14:54:16;;;;;;;16.27;7.70;;;;;;;0.30;89.76;98275.53;12172395;19;20058;-82
2022/12/14 14:58:41;;;;;;;15.50;7.17;;;;;;;0.26;89.26;98267.03;12199153;19;20017;-81
2022/12/14 15:02:44;;;;;;;15.35;6.78;;;;;;;0.27;89.63;98284.97;12203260;19;20014;-80
2022/12/14 15:06:49;;;;;;;14.23;6.35;;;;;;;0.27;89.40;98293.09;12201817;19;20007;-78
2022/12/14 15:10:51;;;;;;;14.52;6.80;;;;;;;0.26;89.52;98301.44;12262790;19;20023;-78
2022/12/14 15:14:59;;;;;;;17.57;7.33;;;;;;;0.25;89.55;98305.19;12242986;19;20054;-81
2022/12/14 15:19:25;;;;;;;19.33;7.00;;;;;;;0.23;90.05;98319.78;12199112;19;20469;-83
2022/12/14 15:23:33;;;;;;;23.70;8.82;;;;;;;0.23;90.03;98324.38;12213376;19;20011;-82
2022/12/14 15:27:37;;;;;;;18.08;8.48;;;;;;;0.21;89.90;98321.91;12198485;19;20003;-82
2022/12/14 15:31:40;;;;;;;15.88;8.07;;;;;;;0.13;89.79;98321.34;12216833;19;20073;-82
2022/12/14 15:35:44;;;;;;;22.75;9.18;;;;;;;0.10;90.28;98335.31;12215168;19;20473;-81
2022/12/14 15:40:03;;;;;;;47.63;18.77;;;;;;;0.09;90.58;98348.03;12192789;19;20010;-82
2022/12/14 15:44:19;;;;;;;65.30;21.88;;;;;;;0.00;90.04;98360.19;12212818;19;20015;-82
2022/12/14 15:48:21;;;;;;;38.67;13.23;;;;;;;-0.08;90.36;98366.66;12190764;19;20007;-82
2022/12/14 15:52:28;;;;;;;25.48;8.90;;;;;;;-0.14;90.62;98364.81;12214989;19;20082;-81
2022/12/14 15:56:36;;;;;;;16.80;6.82;;;;;;;-0.26;90.64;98370.09;12213892;19;20105;-80
2022/12/14 16:00:42;;;;;;;22.42;8.40;;;;;;;-0.43;91.14;98379.72;12182457;19;19998;-81
2022/12/14 16:04:44;;;;;;;14.20;6.47;;;;;;;-0.51;91.81;98375.38;12241695;19;20058;-78
2022/12/14 16:08:53;;;;;;;14.50;6.85;;;;;;;-0.53;91.91;98374.78;12222586;19;20006;-81
2022/12/14 16:13:07;;;;;;;16.73;7.60;;;;;;;-0.51;92.15;98383.50;12186615;19;20380;-79
2022/12/14 16:17:16;;;;;;;15.88;7.38;;;;;;;-0.53;92.49;98393.72;12212590;19;20017;-80
2022/12/14 16:21:47;;;;;;;15.45;7.35;;;;;;;-0.51;93.02;98394.31;12191680;19;20005;-81
2022/12/14 16:26:19;;;;;;;17.77;7.32;;;;;;;-0.47;92.98;98403.69;12206431;19;20011;-78
2022/12/14 16:30:31;;;;;;;23.02;9.20;;;;;;;-0.46;93.12;98399.94;12201139;19;20010;-81
2022/12/14 16:34:33;;;;;;;18.42;8.35;;;;;;;-0.43;93.11;98417.63;12209143;19;20011;-80
2022/12/14 16:38:52;;;;;;;23.90;9.27;;;;;;;-0.38;93.33;98425.94;12209070;19;20002;-82
2022/12/14 16:42:54;;;;;;;16.92;7.82;;;;;;;-0.31;93.46;98436.72;12184324;19;20508;-81
2022/12/14 16:47:44;;;;;;;17.23;7.40;;;;;;;-0.27;93.53;98444.22;12208932;19;20014;-82
2022/12/14 16:51:58;;;;;;;18.92;7.85;;;;;;;-0.22;93.50;98442.75;12181308;19;20017;-82
2022/12/14 16:56:20;;;;;;;15.75;7.55;;;;;;;-0.24;93.41;98438.38;12206011;19;20007;-83
2022/12/14 17:00:25;;;;;;;19.60;7.35;;;;;;;-0.23;93.48;98444.63;12185355;19;20034;-82
2022/12/14 17:04:36;;;;;;;21.42;7.97;;;;;;;-0.27;93.32;98452.34;12204804;19;20111;-81
2022/12/14 17:08:37;;;;;;;21.42;7.88;;;;;;;-0.33;93.81;98444.22;12206608;19;20006;-83
2022/12/14 17:12:39;;;;;;;15.93;7.18;;;;;;;-0.39;93.71;98464.03;12182129;19;20014;-82
2022/12/14 17:16:41;;;;;;;18.35;7.30;;;;;;;-0.51;93.87;98464.66;12205082;19;20003;-82
2022/12/14 17:20:43;;;;;;;18.17;7.95;;;;;;;-0.61;93.84;98463.47;12205548;19;20480;-81
2022/12/14 17:24:45;;;;;;;21.55;8.27;;;;;;;-0.75;94.01;98479.69;12179805;19;20006;-80
2022/12/14 17:28:48;;;;;;;24.55;7.57;;;;;;;-0.89;93.80;98474.50;12200733;19;20014;-80
2022/12/14 17:32:52;;;;;;;17.00;7.22;;;;;;;-1.03;94.31;98471.81;12197494;19;20010;-81
2022/12/14 17:36:55;;;;;;;15.00;6.90;;;;;;;-1.14;94.33;98469.72;12176766;19;20006;-78
2022/12/14 17:40:57;;;;;;;21.80;8.65;;;;;;;-1.26;94.53;98464.09;12195364;19;20972;-81
2022/12/14 17:44:59;;;;;;;17.10;8.17;;;;;;;-1.36;94.68;98462.88;12197915;19;20470;-82
2022/12/14 17:49:04;;;;;;;18.90;7.28;;;;;;;-1.46;95.03;98483.03;12176177;19;20089;-81
2022/12/14 17:53:15;;;;;;;16.30;6.75;;;;;;;-1.51;95.16;98480.09;12197972;19;20334;-80
2022/12/14 17:57:19;;;;;;;17.27;6.80;;;;;;;-1.57;95.20;98480.91;12174844;19;20003;-81
2022/12/14 18:01:24;;;;;;;16.55;7.60;;;;;;;-1.63;95.18;98485.25;12194412;19;20003;-82
2022/12/14 18:05:28;;;;;;;17.42;7.30;;;;;;;-1.68;95.33;98503.94;12191903;19;20019;-80
2022/12/14 18:09:30;;;;;;;18.80;7.63;;;;;;;-1.77;95.49;98497.06;12176268;19;20019;-81
2022/12/14 18:13:33;;;;;;;16.60;7.45;;;;;;;-1.84;95.66;98502.44;12196691;19;20030;-82
2022/12/14 18:17:35;;;;;;;16.73;7.50;;;;;;;-1.90;95.67;98503.25;12198376;19;20003;-81
2022/12/14 18:21:37;;;;;;;18.77;8.00;;;;;;;-1.98;95.98;98503.41;12178511;19;20019;-81
2022/12/14 18:25:51;;;;;;;23.23;8.50;;;;;;;-2.04;96.23;98501.53;12197558;19;20010;-82
2022/12/14 18:29:53;;;;;;;17.88;7.53;;;;;;;-2.06;96.51;98503.56;12241604;19;20009;-78
2022/12/14 18:33:54;;;;;;;18.13;6.82;;;;;;;-2.14;96.31;98510.00;12202926;19;20093;-82
2022/12/14 18:37:57;;;;;;;17.58;7.43;;;;;;;-2.17;96.33;98514.94;12211837;19;20006;-82
2022/12/14 18:41:58;;;;;;;22.25;8.82;;;;;;;-2.20;96.60;98507.25;12219991;19;20010;-80
2022/12/14 18:46:00;;;;;;;18.90;8.53;;;;;;;-2.26;96.55;98508.03;12195782;19;20013;-82
2022/12/14 18:50:02;;;;;;;18.83;7.90;;;;;;;-2.32;96.61;98518.63;12218667;19;20003;-82
2022/12/14 18:54:04;;;;;;;24.43;8.90;;;;;;;-2.38;96.96;98518.56;12214922;19;20050;-81
2022/12/14 18:58:06;;;;;;;15.07;6.13;;;;;;;-2.43;97.13;98527.25;12192652;19;20011;-82
2022/12/14 19:02:13;;;;;;;15.35;7.85;;;;;;;-2.46;97.49;98530.34;12213881;19;20054;-83
2022/12/14 19:06:18;;;;;;;18.52;7.65;;;;;;;-2.49;97.46;98538.84;12184094;19;20018;-83
2022/12/14 19:10:44;;;;;;;19.73;7.53;;;;;;;-2.54;97.36;98547.50;12216091;19;20026;-82
2022/12/14 19:14:47;;;;;;;18.55;8.20;;;;;;;-2.56;97.73;98551.44;12215399;19;20113;-79
2022/12/14 19:18:50;;;;;;;19.98;8.00;;;;;;;-2.58;97.76;98548.13;12193871;19;20409;-83